Time;durP1;ratioP1;P1;durP2;ratioP2;P2;SDS_P1;SDS_P2;PMS_P1;PMS_P2;Temp;Humidity;BMP_temperature;BMP_pressure;BME280_temperature;BME280_humidity;BME280_pressure;Samples;Min_cycle;Max_cycle;Signal;HPM_P1;HPM_P2
2021/03/03 00:00:08;;;;;;;49.45;25.55;;;7.70;90.60;;;;;;5069939;28;20037;-72
2021/03/03 00:02:33;;;;;;;49.45;27.20;;;7.70;90.60;;;;;;5073502;28;20056;-72
2021/03/03 00:04:59;;;;;;;51.20;26.58;;;7.60;90.60;;;;;;5050626;28;20080;-72
2021/03/03 00:07:24;;;;;;;46.67;26.30;;;7.60;90.60;;;;;;5051301;28;20061;-72
2021/03/03 00:09:50;;;;;;;47.65;25.67;;;7.60;90.60;;;;;;5059288;28;20111;-73
2021/03/03 00:12:15;;;;;;;43.70;26.13;;;7.60;90.60;;;;;;5069706;28;20033;-73
2021/03/03 00:14:42;;;;;;;50.15;25.75;;;7.50;90.70;;;;;;5068926;28;20024;-73
2021/03/03 00:17:08;;;;;;;47.08;27.23;;;7.50;90.70;;;;;;5070979;28;20112;-72
2021/03/03 00:19:33;;;;;;;51.08;28.25;;;7.50;90.70;;;;;;5064575;28;20119;-72
2021/03/03 00:21:59;;;;;;;67.63;31.35;;;7.40;90.80;;;;;;5069478;28;20078;-72
2021/03/03 00:24:24;;;;;;;66.97;31.40;;;7.40;91.30;;;;;;5067223;28;20096;-72
2021/03/03 00:26:50;;;;;;;57.40;28.95;;;7.40;91.50;;;;;;5064239;28;20056;-73
2021/03/03 00:29:18;;;;;;;56.58;28.17;;;7.40;91.60;;;;;;5058820;28;20056;-73
2021/03/03 00:31:43;;;;;;;50.40;26.13;;;7.30;91.60;;;;;;5070766;28;20052;-73
2021/03/03 00:34:09;;;;;;;44.40;24.80;;;7.40;91.40;;;;;;5067829;28;20050;-72
2021/03/03 00:36:34;;;;;;;44.10;23.25;;;7.30;91.20;;;;;;5069525;28;20479;-72
2021/03/03 00:39:00;;;;;;;44.30;25.08;;;7.30;91.20;;;;;;5067365;28;20112;-72
2021/03/03 00:41:26;;;;;;;45.17;25.00;;;7.30;91.10;;;;;;5071467;28;20545;-72
2021/03/03 00:43:51;;;;;;;49.58;24.27;;;7.20;91.00;;;;;;5066642;28;20352;-72
2021/03/03 00:46:17;;;;;;;45.42;23.48;;;7.20;91.00;;;;;;5053617;28;20086;-72
2021/03/03 00:48:42;;;;;;;45.25;24.27;;;7.20;91.00;;;;;;5052602;28;20021;-72
2021/03/03 00:51:08;;;;;;;43.33;23.48;;;7.20;91.10;;;;;;5054030;28;20079;-72
2021/03/03 00:53:33;;;;;;;48.95;24.05;;;7.10;91.10;;;;;;5055104;28;20013;-73
2021/03/03 00:55:59;;;;;;;47.20;23.40;;;7.10;91.10;;;;;;5072358;28;20020;-73
2021/03/03 00:58:24;;;;;;;48.65;23.50;;;7.10;91.10;;;;;;5056765;28;20045;-73
2021/03/03 01:00:50;;;;;;;42.83;23.23;;;7.10;91.00;;;;;;5073773;28;20078;-73
2021/03/03 01:03:15;;;;;;;45.17;24.70;;;7.10;90.80;;;;;;5071182;28;20035;-72
2021/03/03 01:05:42;;;;;;;42.60;23.75;;;7.10;90.90;;;;;;5072049;28;20045;-72
2021/03/03 01:08:07;;;;;;;45.25;22.95;;;7.10;91.00;;;;;;5071061;28;20017;-72
2021/03/03 01:10:33;;;;;;;47.88;24.25;;;7.00;91.00;;;;;;5071412;28;20034;-73
2021/03/03 01:12:58;;;;;;;43.25;23.50;;;7.10;91.00;;;;;;5073667;28;20186;-72
2021/03/03 01:15:24;;;;;;;43.35;23.40;;;7.00;91.00;;;;;;5052486;28;20029;-72
2021/03/03 01:17:50;;;;;;;47.38;22.77;;;7.00;91.10;;;;;;5049929;28;20028;-72
2021/03/03 01:20:16;;;;;;;52.53;26.13;;;6.90;91.10;;;;;;5068108;28;20040;-72
2021/03/03 01:22:41;;;;;;;42.53;23.50;;;7.00;91.20;;;;;;5064574;28;20021;-73
2021/03/03 01:25:07;;;;;;;44.33;23.20;;;6.90;91.20;;;;;;5051803;28;20094;-72
2021/03/03 01:27:33;;;;;;;42.35;21.77;;;6.90;91.20;;;;;;5053322;28;20187;-72
2021/03/03 01:29:58;;;;;;;41.22;21.70;;;6.90;91.20;;;;;;5052188;28;20175;-71
2021/03/03 01:32:24;;;;;;;42.78;22.52;;;6.90;91.20;;;;;;5052167;28;20009;-72
2021/03/03 01:34:49;;;;;;;40.55;20.30;;;6.90;91.30;;;;;;5051993;28;20029;-71
2021/03/03 01:37:15;;;;;;;44.70;20.45;;;6.80;91.30;;;;;;5057432;28;20366;-70
2021/03/03 01:39:40;;;;;;;39.83;20.23;;;6.80;91.50;;;;;;5069805;28;20020;-71
2021/03/03 01:42:06;;;;;;;40.47;21.20;;;6.80;91.30;;;;;;5072955;28;20543;-71
2021/03/03 01:44:31;;;;;;;36.05;20.67;;;6.70;91.40;;;;;;5059099;28;20119;-72
2021/03/03 01:46:57;;;;;;;36.75;19.35;;;6.70;91.40;;;;;;5052631;28;20021;-70
2021/03/03 01:49:22;;;;;;;39.45;21.17;;;6.70;91.40;;;;;;5060636;28;20076;-71
2021/03/03 01:51:48;;;;;;;42.70;20.67;;;6.60;91.40;;;;;;5071989;28;20023;-71
2021/03/03 01:54:13;;;;;;;44.13;20.70;;;6.60;91.70;;;;;;5061262;28;20029;-70
2021/03/03 01:56:38;;;;;;;43.13;21.38;;;6.60;91.50;;;;;;5052889;28;20516;-70
2021/03/03 01:59:04;;;;;;;40.30;20.70;;;6.50;91.60;;;;;;5057699;28;20048;-71
2021/03/03 02:01:29;;;;;;;39.25;20.00;;;6.50;91.70;;;;;;5072736;28;20082;-71
2021/03/03 02:03:55;;;;;;;39.38;21.38;;;6.40;91.70;;;;;;5068901;28;20030;-70
2021/03/03 02:06:56;;;;;;;38.70;20.25;;;6.30;91.90;;;;;;5066699;28;20028;-70
2021/03/03 02:09:56;;;;;;;35.28;20.52;;;6.30;91.90;;;;;;5049712;28;20113;-71
2021/03/03 02:13:04;;;;;;;37.92;20.90;;;6.20;91.90;;;;;;5070722;28;20028;-70
2021/03/03 02:15:32;;;;;;;37.83;19.40;;;6.20;92.00;;;;;;5052642;28;20021;-72
2021/03/03 02:18:01;;;;;;;38.40;20.25;;;6.20;92.00;;;;;;5050323;28;20087;-71
2021/03/03 02:20:32;;;;;;;39.72;18.90;;;6.20;92.10;;;;;;5050939;28;20086;-72
2021/03/03 02:23:22;;;;;;;36.88;19.48;;;6.20;92.20;;;;;;5050817;28;20116;-71
2021/03/03 02:25:48;;;;;;;41.85;19.63;;;6.20;92.20;;;;;;5071907;28;20032;-71
2021/03/03 02:28:14;;;;;;;41.20;19.10;;;6.20;92.20;;;;;;5066333;28;20497;-71
2021/03/03 02:30:44;;;;;;;42.78;18.98;;;6.20;92.20;;;;;;5054521;28;20033;-71
2021/03/03 02:33:14;;;;;;;36.20;17.58;;;6.20;92.20;;;;;;5079118;28;20040;-71
2021/03/03 02:35:43;;;;;;;36.28;18.40;;;6.20;92.20;;;;;;5064287;28;20029;-71
2021/03/03 02:38:09;;;;;;;35.42;19.08;;;6.20;92.20;;;;;;5050795;28;20086;-72
2021/03/03 02:40:35;;;;;;;33.83;17.83;;;6.20;92.30;;;;;;5052851;28;20025;-72
2021/03/03 02:43:01;;;;;;;31.85;18.15;;;6.20;92.30;;;;;;5050462;28;20068;-72
2021/03/03 02:45:28;;;;;;;40.40;20.35;;;6.20;92.30;;;;;;5051806;28;20035;-72
2021/03/03 02:47:54;;;;;;;35.80;19.42;;;6.20;92.30;;;;;;5050757;28;20035;-71
2021/03/03 02:50:20;;;;;;;36.58;19.27;;;6.20;92.30;;;;;;5072022;28;20068;-72
2021/03/03 02:52:53;;;;;;;37.38;18.98;;;6.20;92.30;;;;;;5068161;28;20060;-71
2021/03/03 02:55:21;;;;;;;35.30;18.33;;;6.20;92.30;;;;;;5031838;28;20044;-72
2021/03/03 02:57:47;;;;;;;40.42;20.02;;;6.20;92.30;;;;;;5045038;28;20044;-71
2021/03/03 03:00:22;;;;;;;37.28;19.08;;;6.20;92.40;;;;;;5051527;28;20489;-72
2021/03/03 03:02:51;;;;;;;32.78;18.67;;;6.10;92.40;;;;;;5049399;28;20064;-73
2021/03/03 03:05:19;;;;;;;37.95;19.75;;;6.00;92.40;;;;;;5030382;28;20132;-72
2021/03/03 03:07:49;;;;;;;40.65;21.20;;;6.00;92.50;;;;;;5062311;28;20390;-70
2021/03/03 03:10:16;;;;;;;37.58;19.80;;;5.90;92.50;;;;;;5071011;28;20024;-69
2021/03/03 03:12:49;;;;;;;38.38;19.33;;;5.90;92.60;;;;;;5070317;28;20391;-69
2021/03/03 03:15:17;;;;;;;36.45;19.02;;;5.90;92.60;;;;;;5070596;28;20469;-69
2021/03/03 03:17:45;;;;;;;39.25;18.55;;;5.80;92.70;;;;;;5068913;28;20029;-70
2021/03/03 03:20:11;;;;;;;37.78;18.00;;;5.80;92.70;;;;;;5051222;28;20041;-70
2021/03/03 03:22:38;;;;;;;38.38;18.05;;;5.80;92.90;;;;;;5049619;28;20028;-69
2021/03/03 03:25:04;;;;;;;31.92;17.30;;;5.80;92.90;;;;;;5049686;28;20533;-69
2021/03/03 03:27:31;;;;;;;37.25;19.00;;;5.80;92.90;;;;;;5050919;28;20114;-69
2021/03/03 03:29:59;;;;;;;38.92;19.20;;;5.90;92.90;;;;;;5067863;28;20639;-70
2021/03/03 03:32:25;;;;;;;35.70;18.15;;;5.80;92.80;;;;;;5069532;28;20029;-69
2021/03/03 03:34:51;;;;;;;36.78;18.50;;;5.80;92.80;;;;;;5051495;28;20033;-70
2021/03/03 03:37:19;;;;;;;34.15;18.23;;;5.80;92.80;;;;;;5052416;28;20025;-69
2021/03/03 03:39:44;;;;;;;31.58;16.30;;;5.80;92.80;;;;;;5065301;28;20032;-69
2021/03/03 03:42:13;;;;;;;38.83;19.15;;;5.70;92.80;;;;;;5071071;28;20392;-69
2021/03/03 03:44:40;;;;;;;35.47;18.17;;;5.70;92.80;;;;;;5067703;28;20040;-69
2021/03/03 03:47:06;;;;;;;32.30;17.80;;;5.80;92.90;;;;;;5054774;28;20366;-69
2021/03/03 03:49:31;;;;;;;39.47;17.92;;;5.80;92.90;;;;;;5050056;28;20025;-69
2021/03/03 03:51:57;;;;;;;33.33;18.00;;;5.80;92.80;;;;;;5050644;28;20052;-69
2021/03/03 03:54:23;;;;;;;32.20;16.98;;;5.80;92.80;;;;;;5061303;28;20025;-69
2021/03/03 03:56:48;;;;;;;31.35;16.10;;;5.80;92.80;;;;;;5070421;28;20044;-72
2021/03/03 03:59:14;;;;;;;32.83;16.63;;;5.80;92.80;;;;;;5051320;28;20040;-72
2021/03/03 04:01:39;;;;;;;33.03;16.30;;;5.80;92.80;;;;;;5049697;28;20029;-70
2021/03/03 04:04:05;;;;;;;31.13;16.95;;;5.70;92.80;;;;;;5058498;28;20465;-72
2021/03/03 04:06:30;;;;;;;34.90;17.13;;;5.70;92.70;;;;;;5050580;28;20029;-71
2021/03/03 04:08:56;;;;;;;42.92;19.00;;;5.70;92.70;;;;;;5049639;28;20488;-71
2021/03/03 04:11:21;;;;;;;33.85;17.02;;;5.70;92.70;;;;;;5050483;28;20031;-71
2021/03/03 04:13:47;;;;;;;31.80;16.77;;;5.70;92.70;;;;;;5056530;28;20032;-71
2021/03/03 04:16:12;;;;;;;35.55;17.13;;;5.70;92.60;;;;;;5072779;28;20489;-71
2021/03/03 04:18:38;;;;;;;37.25;17.88;;;5.60;92.60;;;;;;5064813;28;20037;-71
2021/03/03 04:21:04;;;;;;;32.40;17.45;;;5.60;92.60;;;;;;5054415;28;20510;-71
2021/03/03 04:23:29;;;;;;;34.47;18.15;;;5.60;92.60;;;;;;5057865;28;20031;-71
2021/03/03 04:25:55;;;;;;;31.08;16.67;;;5.60;92.60;;;;;;5073606;28;20039;-71
2021/03/03 04:28:20;;;;;;;32.20;16.88;;;5.60;92.60;;;;;;5069632;28;20024;-71
2021/03/03 04:30:46;;;;;;;36.13;17.77;;;5.50;92.50;;;;;;5074346;28;20029;-71
2021/03/03 04:33:13;;;;;;;32.63;17.48;;;5.50;92.50;;;;;;5066675;28;20024;-71
2021/03/03 04:35:39;;;;;;;32.25;16.90;;;5.40;92.50;;;;;;5053407;28;20025;-71
2021/03/03 04:38:05;;;;;;;39.70;18.80;;;5.30;92.50;;;;;;5054329;28;20562;-71
2021/03/03 04:40:30;;;;;;;29.83;16.75;;;5.30;92.60;;;;;;5074435;28;20079;-71
2021/03/03 04:42:56;;;;;;;30.42;16.27;;;5.20;92.60;;;;;;5071014;28;20476;-72
2021/03/03 04:45:21;;;;;;;38.65;17.83;;;5.20;92.60;;;;;;5054018;28;20033;-71
2021/03/03 04:47:47;;;;;;;30.92;16.88;;;5.20;92.70;;;;;;5053146;28;20024;-72
2021/03/03 04:50:12;;;;;;;31.05;16.17;;;5.20;92.70;;;;;;5053916;28;20021;-71
2021/03/03 04:52:38;;;;;;;30.73;16.60;;;5.20;92.70;;;;;;5053879;28;20115;-72
2021/03/03 04:55:05;;;;;;;32.60;16.75;;;5.20;92.70;;;;;;5069552;28;20031;-71
2021/03/03 04:57:31;;;;;;;31.95;16.55;;;5.10;92.70;;;;;;5073528;28;20144;-72
2021/03/03 04:59:56;;;;;;;30.67;15.30;;;5.10;92.70;;;;;;5053922;28;20116;-71
2021/03/03 05:02:22;;;;;;;31.58;16.77;;;5.10;92.70;;;;;;5052913;28;20492;-71
2021/03/03 05:04:48;;;;;;;30.90;16.60;;;5.10;92.80;;;;;;5055420;28;20037;-71
2021/03/03 05:07:14;;;;;;;32.15;17.90;;;5.00;92.80;;;;;;5071931;28;20377;-71
2021/03/03 05:09:39;;;;;;;37.95;16.85;;;5.00;92.80;;;;;;5063441;28;20504;-71
2021/03/03 05:12:06;;;;;;;32.53;15.85;;;5.00;92.90;;;;;;5053832;28;20041;-72
2021/03/03 05:14:31;;;;;;;34.45;16.35;;;5.00;92.90;;;;;;5052577;28;20473;-72
2021/03/03 05:16:57;;;;;;;33.78;16.48;;;5.00;92.90;;;;;;5068796;28;20031;-72
2021/03/03 05:19:41;;;;;;;30.10;15.30;;;5.00;92.90;;;;;;5052551;28;20044;-72
2021/03/03 05:22:06;;;;;;;34.33;17.08;;;5.00;92.90;;;;;;5053208;28;20029;-72
2021/03/03 05:24:32;;;;;;;31.65;16.88;;;5.00;93.00;;;;;;5052203;28;20496;-72
2021/03/03 05:26:57;;;;;;;36.20;16.73;;;5.00;93.00;;;;;;5052255;28;20037;-72
2021/03/03 05:29:23;;;;;;;34.45;17.83;;;4.90;93.00;;;;;;5063729;28;20113;-72
2021/03/03 05:31:48;;;;;;;34.45;16.10;;;4.90;93.00;;;;;;5058465;28;20037;-72
2021/03/03 05:34:14;;;;;;;33.20;16.52;;;4.90;93.00;;;;;;5051899;28;20036;-72
2021/03/03 05:36:39;;;;;;;35.47;18.13;;;4.90;93.10;;;;;;5052982;28;20028;-71
2021/03/03 05:39:05;;;;;;;32.20;15.93;;;4.90;93.10;;;;;;5062527;28;20097;-72
2021/03/03 05:41:31;;;;;;;34.10;17.63;;;4.90;93.10;;;;;;5073341;28;20044;-72
2021/03/03 05:43:57;;;;;;;30.63;16.63;;;4.90;93.10;;;;;;5070080;28;20028;-71
2021/03/03 05:46:23;;;;;;;36.85;19.50;;;4.80;93.10;;;;;;5066758;28;20037;-72
2021/03/03 05:48:55;;;;;;;32.25;16.30;;;4.80;93.20;;;;;;5051565;28;20020;-72
2021/03/03 05:51:23;;;;;;;32.70;16.67;;;4.80;93.20;;;;;;5052480;28;20029;-71
2021/03/03 05:53:50;;;;;;;36.60;17.00;;;4.70;93.20;;;;;;5057832;28;20039;-71
2021/03/03 05:56:16;;;;;;;32.80;16.25;;;4.70;93.30;;;;;;5072728;28;20362;-71
2021/03/03 05:58:41;;;;;;;31.75;15.73;;;4.80;93.40;;;;;;5043226;28;20029;-71
2021/03/03 06:01:09;;;;;;;32.85;16.30;;;4.70;93.30;;;;;;5053578;28;20032;-71
2021/03/03 06:03:35;;;;;;;32.80;18.00;;;4.70;93.40;;;;;;5068905;28;20086;-72
2021/03/03 06:06:01;;;;;;;30.15;16.27;;;4.80;93.40;;;;;;5071774;28;20504;-71
2021/03/03 06:08:28;;;;;;;32.25;15.15;;;4.80;93.40;;;;;;5064673;28;20060;-70
2021/03/03 06:10:55;;;;;;;30.38;16.80;;;4.80;93.40;;;;;;5052174;28;20032;-70
2021/03/03 06:13:21;;;;;;;31.33;15.70;;;4.80;93.40;;;;;;5055170;28;20059;-71
2021/03/03 06:15:47;;;;;;;31.17;17.75;;;4.80;93.50;;;;;;5072050;28;20044;-70
2021/03/03 06:18:14;;;;;;;32.08;16.52;;;4.80;93.50;;;;;;5064454;28;20024;-71
2021/03/03 06:20:45;;;;;;;30.60;16.38;;;4.80;93.50;;;;;;5062788;28;20448;-71
2021/03/03 06:23:14;;;;;;;32.53;17.27;;;4.80;93.50;;;;;;5065482;28;20032;-71
2021/03/03 06:25:40;;;;;;;30.38;16.15;;;4.80;93.60;;;;;;5051972;28;20493;-70
2021/03/03 06:28:06;;;;;;;33.55;16.50;;;4.80;93.60;;;;;;5051219;28;20064;-71
2021/03/03 06:30:31;;;;;;;34.05;16.60;;;4.80;93.60;;;;;;5050267;28;20504;-70
2021/03/03 06:33:01;;;;;;;31.33;17.27;;;4.80;93.60;;;;;;5048582;28;20057;-70
2021/03/03 06:35:41;;;;;;;33.15;17.27;;;4.80;93.60;;;;;;5052059;28;20028;-71
2021/03/03 06:38:11;;;;;;;35.78;18.73;;;4.80;93.70;;;;;;5052095;28;20025;-71
2021/03/03 06:40:54;;;;;;;33.33;16.48;;;4.80;93.70;;;;;;5072269;28;20576;-72
2021/03/03 06:43:21;;;;;;;35.20;18.15;;;4.90;93.80;;;;;;5068080;28;20043;-72
2021/03/03 06:45:48;;;;;;;29.92;16.33;;;4.90;93.80;;;;;;5070816;28;20488;-72
2021/03/03 06:48:13;;;;;;;36.45;17.40;;;5.00;93.90;;;;;;5038604;28;20035;-72
2021/03/03 06:50:40;;;;;;;33.67;17.88;;;5.00;93.90;;;;;;5068826;28;20405;-71
2021/03/03 06:53:06;;;;;;;36.55;17.70;;;5.00;93.90;;;;;;5067814;28;20501;-71
2021/03/03 06:55:48;;;;;;;37.25;19.00;;;5.00;94.00;;;;;;5069961;28;20025;-71
2021/03/03 06:58:24;;;;;;;35.67;19.02;;;5.10;94.00;;;;;;5065784;28;20047;-72
2021/03/03 07:00:50;;;;;;;36.78;18.42;;;5.10;94.00;;;;;;5071629;28;20496;-72
2021/03/03 07:03:32;;;;;;;36.72;18.27;;;5.20;93.90;;;;;;5067685;28;20035;-71
2021/03/03 07:05:58;;;;;;;34.75;19.17;;;5.20;94.00;;;;;;5069335;28;20044;-71
2021/03/03 07:08:24;;;;;;;34.05;18.35;;;5.20;94.00;;;;;;5062372;28;20059;-71
2021/03/03 07:10:49;;;;;;;33.30;18.73;;;5.20;94.00;;;;;;5051297;28;20076;-71
2021/03/03 07:13:16;;;;;;;32.45;18.20;;;5.30;94.00;;;;;;5069086;28;20029;-71
2021/03/03 07:15:42;;;;;;;35.97;19.38;;;5.30;94.10;;;;;;5071304;28;20481;-71
2021/03/03 07:18:36;;;;;;;36.30;19.10;;;5.40;94.20;;;;;;5064279;28;20025;-72
2021/03/03 07:21:04;;;;;;;37.88;18.70;;;5.40;94.10;;;;;;5050888;28;20033;-71
2021/03/03 07:23:44;;;;;;;37.47;20.02;;;5.50;94.10;;;;;;5049702;28;20036;-71
2021/03/03 07:26:12;;;;;;;34.53;18.85;;;5.50;94.10;;;;;;5071118;28;20089;-71
2021/03/03 07:28:39;;;;;;;41.08;19.38;;;5.50;94.20;;;;;;5067703;28;20032;-71
2021/03/03 07:31:06;;;;;;;38.00;20.35;;;5.60;94.10;;;;;;5069220;28;20028;-71
2021/03/03 07:33:31;;;;;;;40.90;20.63;;;5.60;94.10;;;;;;5067947;28;20067;-71
2021/03/03 07:36:03;;;;;;;39.45;20.33;;;5.70;94.10;;;;;;5071023;28;20060;-72
2021/03/03 07:38:31;;;;;;;37.63;19.95;;;5.70;94.00;;;;;;5063160;28;20083;-71
2021/03/03 07:41:08;;;;;;;41.13;20.98;;;5.70;94.00;;;;;;5051968;28;20053;-71
2021/03/03 07:43:34;;;;;;;43.00;21.17;;;5.80;94.10;;;;;;5057411;28;20040;-72
2021/03/03 07:46:02;;;;;;;43.22;21.95;;;5.90;94.10;;;;;;5055237;28;20049;-71
2021/03/03 07:48:29;;;;;;;42.58;21.58;;;5.90;94.00;;;;;;5048565;28;20182;-71
2021/03/03 07:50:54;;;;;;;41.58;21.85;;;5.90;93.90;;;;;;5049945;28;20503;-72
2021/03/03 07:53:20;;;;;;;38.35;21.88;;;6.00;93.90;;;;;;5069762;28;20032;-72
2021/03/03 07:55:46;;;;;;;45.45;22.42;;;6.00;93.90;;;;;;5074825;28;20024;-71
2021/03/03 07:58:12;;;;;;;42.47;22.33;;;6.00;93.90;;;;;;5069163;28;20040;-72
2021/03/03 08:00:40;;;;;;;43.38;22.13;;;6.10;93.90;;;;;;5054588;28;20025;-72
2021/03/03 08:03:06;;;;;;;44.75;21.10;;;6.20;93.90;;;;;;5055190;28;20036;-72
2021/03/03 08:05:37;;;;;;;39.10;21.45;;;6.30;93.90;;;;;;5074799;28;20032;-72
2021/03/03 08:08:24;;;;;;;41.42;21.42;;;6.30;93.80;;;;;;5057760;28;20112;-72
2021/03/03 08:11:10;;;;;;;36.28;20.52;;;6.40;93.80;;;;;;5054721;28;20040;-71
2021/03/03 08:13:42;;;;;;;39.42;20.90;;;6.50;93.60;;;;;;5045842;28;20036;-71
2021/03/03 08:16:08;;;;;;;41.22;22.75;;;6.50;93.50;;;;;;5073562;28;20027;-72
2021/03/03 08:18:37;;;;;;;41.10;22.85;;;6.50;93.50;;;;;;5064987;28;20110;-72
2021/03/03 08:21:09;;;;;;;43.33;23.02;;;6.60;93.50;;;;;;5053783;28;20048;-73
2021/03/03 08:23:34;;;;;;;43.72;22.50;;;6.60;93.40;;;;;;5050845;28;20021;-68
2021/03/03 08:26:01;;;;;;;40.90;22.15;;;6.70;93.40;;;;;;5061716;28;20040;-68
2021/03/03 08:28:30;;;;;;;42.70;23.05;;;6.70;93.40;;;;;;5047786;28;20120;-66
2021/03/03 08:31:08;;;;;;;41.67;21.75;;;6.80;93.30;;;;;;5054855;28;20392;-67
2021/03/03 08:33:36;;;;;;;43.10;22.08;;;6.80;93.30;;;;;;5071065;28;20484;-66
2021/03/03 08:36:02;;;;;;;40.70;23.25;;;6.90;93.30;;;;;;5074024;28;20032;-67
2021/03/03 08:38:28;;;;;;;40.05;21.77;;;7.00;93.30;;;;;;5067318;28;20029;-67
2021/03/03 08:41:14;;;;;;;40.60;20.98;;;7.00;93.30;;;;;;5063815;28;20025;-65
2021/03/03 08:43:47;;;;;;;39.03;21.42;;;7.10;93.10;;;;;;5054307;28;20086;-66
2021/03/03 08:46:19;;;;;;;37.22;21.42;;;7.20;93.00;;;;;;5061724;28;20124;-66
2021/03/03 08:48:57;;;;;;;44.05;22.73;;;7.20;92.90;;;;;;5064314;28;20079;-65
2021/03/03 08:51:30;;;;;;;47.25;23.75;;;7.30;92.90;;;;;;5056445;28;20033;-66
2021/03/03 08:54:01;;;;;;;40.88;22.25;;;7.30;92.80;;;;;;5053379;28;20037;-66
2021/03/03 08:56:40;;;;;;;43.47;22.73;;;7.40;92.70;;;;;;5054217;28;20078;-66
2021/03/03 08:59:12;;;;;;;39.88;21.40;;;7.50;92.60;;;;;;5053239;28;20036;-66
2021/03/03 09:02:02;;;;;;;40.30;22.73;;;7.50;92.60;;;;;;5068954;28;20097;-65
2021/03/03 09:04:30;;;;;;;44.33;22.42;;;7.50;92.60;;;;;;5070371;28;20043;-66
2021/03/03 09:07:03;;;;;;;37.10;21.17;;;7.60;92.50;;;;;;5054188;28;20040;-66
2021/03/03 09:09:36;;;;;;;39.30;21.35;;;7.60;92.50;;;;;;5054681;28;20476;-66
2021/03/03 09:12:04;;;;;;;42.17;21.88;;;7.70;92.60;;;;;;5053921;28;20036;-67
2021/03/03 09:14:30;;;;;;;38.83;21.50;;;7.80;92.40;;;;;;5066151;28;20050;-66
2021/03/03 09:17:02;;;;;;;35.47;20.83;;;7.80;92.30;;;;;;5052998;28;20041;-66
2021/03/03 09:19:30;;;;;;;38.08;20.77;;;7.90;92.30;;;;;;5065188;28;20025;-65
2021/03/03 09:21:57;;;;;;;36.60;21.27;;;7.90;92.20;;;;;;5054765;28;20132;-66
2021/03/03 09:24:23;;;;;;;38.88;20.95;;;8.00;92.30;;;;;;5065064;28;20029;-65
2021/03/03 09:26:49;;;;;;;38.88;21.00;;;8.10;92.20;;;;;;5073579;28;20051;-65
2021/03/03 09:29:25;;;;;;;39.22;22.38;;;8.30;92.10;;;;;;5056877;28;20481;-65
2021/03/03 09:31:51;;;;;;;41.20;22.70;;;8.30;92.00;;;;;;5052915;28;20047;-65
2021/03/03 09:34:17;;;;;;;42.58;22.88;;;8.40;92.00;;;;;;5063281;28;20029;-65
2021/03/03 09:36:51;;;;;;;37.92;20.63;;;8.50;91.90;;;;;;5072010;28;20116;-66
2021/03/03 09:39:21;;;;;;;38.08;21.67;;;8.50;91.70;;;;;;5064887;28;20040;-67
2021/03/03 09:41:57;;;;;;;38.90;21.05;;;8.60;91.60;;;;;;5051679;28;20036;-66
2021/03/03 09:44:22;;;;;;;37.60;21.08;;;8.70;91.50;;;;;;5063745;28;20115;-66
2021/03/03 09:46:59;;;;;;;38.97;21.20;;;8.80;91.40;;;;;;5060681;28;20056;-66
2021/03/03 09:49:33;;;;;;;38.40;22.95;;;8.90;91.20;;;;;;5051226;28;20035;-66
2021/03/03 09:51:59;;;;;;;40.53;22.35;;;9.00;91.10;;;;;;5051143;28;20043;-65
2021/03/03 09:54:36;;;;;;;36.38;20.58;;;9.10;91.00;;;;;;5052872;28;20108;-65
2021/03/03 09:57:04;;;;;;;33.60;20.08;;;9.20;90.90;;;;;;5046318;28;20440;-65
2021/03/03 09:59:31;;;;;;;36.60;20.98;;;9.30;90.60;;;;;;5033052;28;20080;-73
2021/03/03 10:01:57;;;;;;;36.95;21.35;;;9.30;90.40;;;;;;5037108;28;20026;-73
2021/03/03 10:04:24;;;;;;;37.40;20.77;;;9.40;90.20;;;;;;5033034;28;20037;-73
2021/03/03 10:06:50;;;;;;;38.95;21.98;;;9.40;90.20;;;;;;5046620;28;20032;-73
2021/03/03 10:09:15;;;;;;;34.70;21.52;;;9.50;90.00;;;;;;5047472;28;20119;-73
2021/03/03 10:11:42;;;;;;;37.90;19.98;;;9.50;90.00;;;;;;5051604;28;20526;-73
2021/03/03 10:14:08;;;;;;;42.97;22.38;;;9.50;89.70;;;;;;5052059;28;20021;-73
2021/03/03 10:16:34;;;;;;;38.60;21.40;;;9.60;89.40;;;;;;5054043;28;20029;-73
2021/03/03 10:19:09;;;;;;;35.97;21.50;;;9.70;89.00;;;;;;5050150;28;20032;-74
2021/03/03 10:21:43;;;;;;;;;;;9.70;88.70;;;;;;5037133;28;20030;-74
2021/03/03 10:24:16;;;;;;;35.42;20.40;;;9.80;89.60;;;;;;5050740;28;20280;-74
2021/03/03 10:26:46;;;;;;;42.22;22.00;;;9.80;88.40;;;;;;5051997;28;20080;-73
2021/03/03 10:29:31;;;;;;;34.53;19.60;;;9.90;87.90;;;;;;5052221;28;20017;-73
2021/03/03 10:32:14;;;;;;;35.95;20.02;;;9.90;87.90;;;;;;5052004;28;20063;-72
2021/03/03 10:34:40;;;;;;;36.50;19.95;;;10.00;88.00;;;;;;5050868;28;20037;-73
2021/03/03 10:37:06;;;;;;;35.83;19.70;;;10.00;87.70;;;;;;5051766;28;20028;-74
2021/03/03 10:39:33;;;;;;;35.95;20.80;;;10.10;87.20;;;;;;5051816;28;20025;-73
2021/03/03 10:42:04;;;;;;;33.38;19.77;;;10.10;86.90;;;;;;5051710;28;20075;-73
2021/03/03 10:44:40;;;;;;;32.97;19.42;;;10.20;86.80;;;;;;5046379;28;20033;-73
2021/03/03 10:47:07;;;;;;;32.00;19.20;;;10.30;86.70;;;;;;5034984;28;20041;-73
2021/03/03 10:49:35;;;;;;;36.97;19.13;;;10.30;87.10;;;;;;5030461;28;20034;-75
2021/03/03 10:52:00;;;;;;;30.08;16.30;;;10.40;86.60;;;;;;5041620;28;20082;-74
2021/03/03 10:54:33;;;;;;;33.00;19.45;;;10.40;86.50;;;;;;5050661;28;20108;-75
2021/03/03 10:57:08;;;;;;;36.05;20.15;;;10.50;85.90;;;;;;5050990;28;20041;-74
2021/03/03 10:59:38;;;;;;;37.25;19.98;;;10.60;85.70;;;;;;5044620;28;20033;-74
2021/03/03 11:02:05;;;;;;;35.53;19.63;;;10.70;85.00;;;;;;5041059;28;20021;-74
2021/03/03 11:04:41;;;;;;;33.40;18.83;;;10.70;84.50;;;;;;5054290;28;20028;-75
2021/03/03 11:07:08;;;;;;;34.38;20.17;;;10.80;84.40;;;;;;5062870;28;20044;-74
2021/03/03 11:09:34;;;;;;;34.03;19.33;;;10.90;84.20;;;;;;5051467;28;20504;-73
2021/03/03 11:12:01;;;;;;;33.47;19.60;;;11.00;83.80;;;;;;5050884;28;20024;-74
2021/03/03 11:14:28;;;;;;;31.73;18.92;;;11.00;83.80;;;;;;5051106;28;20370;-74
2021/03/03 11:16:58;;;;;;;32.83;19.65;;;11.10;83.60;;;;;;5049450;28;20028;-74
2021/03/03 11:19:25;;;;;;;38.03;21.05;;;11.20;83.30;;;;;;5044529;28;20112;-74
2021/03/03 11:21:51;;;;;;;35.60;19.50;;;11.30;82.90;;;;;;5049554;28;20108;-74
2021/03/03 11:24:18;;;;;;;37.50;22.25;;;11.30;83.00;;;;;;5050669;28;20025;-74
2021/03/03 11:26:44;;;;;;;36.85;21.35;;;11.40;82.80;;;;;;5049679;28;20033;-73
2021/03/03 11:29:10;;;;;;;34.05;20.27;;;11.50;82.80;;;;;;5051210;28;20093;-73
2021/03/03 11:31:37;;;;;;;38.13;21.05;;;11.50;82.40;;;;;;5050341;28;20115;-74
2021/03/03 11:34:03;;;;;;;35.88;20.55;;;11.60;82.10;;;;;;5050820;28;20155;-74
2021/03/03 11:36:30;;;;;;;39.67;19.17;;;11.60;82.00;;;;;;5046891;28;20389;-73
2021/03/03 11:38:55;;;;;;;39.85;21.67;;;11.70;81.80;;;;;;5050706;28;20032;-74
2021/03/03 11:41:22;;;;;;;33.97;20.08;;;11.70;81.50;;;;;;5044803;28;20033;-73
2021/03/03 11:43:47;;;;;;;34.80;19.92;;;11.80;81.20;;;;;;5044947;28;20022;-73
2021/03/03 11:46:13;;;;;;;34.47;19.48;;;11.90;80.90;;;;;;5049944;28;20048;-73
2021/03/03 11:48:39;;;;;;;33.20;18.98;;;12.00;80.60;;;;;;5050419;28;20029;-73
2021/03/03 11:51:05;;;;;;;33.15;19.98;;;12.10;80.40;;;;;;5050519;28;20424;-73
2021/03/03 11:53:30;;;;;;;33.50;20.58;;;12.10;79.90;;;;;;5051056;28;20056;-74
2021/03/03 11:55:56;;;;;;;34.47;20.33;;;12.20;79.80;;;;;;5049032;28;20075;-73
2021/03/03 11:58:21;;;;;;;34.20;20.55;;;12.30;79.50;;;;;;5050913;28;20041;-73
2021/03/03 12:00:47;;;;;;;36.05;19.83;;;12.40;79.00;;;;;;5052445;28;20031;-73
2021/03/03 12:03:12;;;;;;;31.90;19.10;;;12.50;78.90;;;;;;5051268;28;20112;-74
2021/03/03 12:05:38;;;;;;;38.55;20.80;;;12.50;78.50;;;;;;5050742;28;20033;-74
2021/03/03 12:08:06;;;;;;;34.97;20.50;;;12.60;78.00;;;;;;5050953;28;20029;-72
2021/03/03 12:10:32;;;;;;;32.65;19.52;;;12.70;77.80;;;;;;5051221;28;20139;-73
2021/03/03 12:12:59;;;;;;;34.65;20.35;;;12.70;77.50;;;;;;5050611;28;20053;-79
2021/03/03 12:15:24;;;;;;;32.25;20.40;;;12.80;77.30;;;;;;5050262;28;20029;-76
2021/03/03 12:17:50;;;;;;;36.03;21.63;;;12.80;77.30;;;;;;5040048;28;20383;-76
2021/03/03 12:20:16;;;;;;;36.72;20.95;;;12.90;77.20;;;;;;5051043;28;20033;-73
2021/03/03 12:22:41;;;;;;;32.92;20.45;;;12.90;77.00;;;;;;5041600;28;20021;-72
2021/03/03 12:25:08;;;;;;;29.27;17.50;;;13.00;77.00;;;;;;5037847;28;20037;-74
2021/03/03 12:27:34;;;;;;;37.70;20.02;;;13.00;76.90;;;;;;5048535;28;20619;-73
2021/03/03 12:29:59;;;;;;;32.53;19.13;;;13.00;76.40;;;;;;5046131;28;20040;-72
2021/03/03 12:32:24;;;;;;;34.50;20.38;;;13.10;76.30;;;;;;5033102;28;20028;-73
2021/03/03 12:34:50;;;;;;;28.70;17.25;;;13.20;76.00;;;;;;5049939;28;20098;-72
2021/03/03 12:37:15;;;;;;;29.27;17.27;;;13.30;75.90;;;;;;5051762;28;20033;-73
2021/03/03 12:39:41;;;;;;;31.63;17.95;;;13.30;75.80;;;;;;5052687;28;20025;-73